createdAt,value
2017-12-01T00:00:52.651Z,2.90
2017-12-01T00:03:20.111Z,2.90
2017-12-01T00:05:47.570Z,2.90
2017-12-01T00:08:15.041Z,2.90
2017-12-01T00:10:42.491Z,2.90
2017-12-01T00:13:10.715Z,2.90
2017-12-01T00:15:38.169Z,2.90
2017-12-01T00:18:05.632Z,2.90
2017-12-01T00:20:33.181Z,2.90
2017-12-01T00:23:00.620Z,2.90
2017-12-01T00:25:28.851Z,3.00
2017-12-01T00:27:56.308Z,2.90
2017-12-01T00:30:23.824Z,2.90
2017-12-01T00:32:52.054Z,3.00
2017-12-01T00:35:19.598Z,3.00
2017-12-01T00:37:47.055Z,3.00
2017-12-01T00:40:14.511Z,3.00
2017-12-01T00:42:41.959Z,3.00
2017-12-01T00:45:09.422Z,3.00
2017-12-01T00:47:37.637Z,3.00
2017-12-01T00:50:05.100Z,3.00
2017-12-01T00:52:32.649Z,3.00
2017-12-01T00:55:00.111Z,3.00
2017-12-01T00:57:27.779Z,3.00
2017-12-01T00:59:55.240Z,3.00
2017-12-01T01:02:22.697Z,3.10
2017-12-01T01:04:50.156Z,3.00
2017-12-01T01:07:17.627Z,3.00
2017-12-01T01:09:45.093Z,3.10
2017-12-01T01:12:12.544Z,3.00
2017-12-01T01:14:40.001Z,3.10
2017-12-01T01:17:07.465Z,3.10
2017-12-01T01:19:34.928Z,3.10
2017-12-01T01:22:02.384Z,3.10
2017-12-01T01:24:29.851Z,3.10
2017-12-01T01:26:57.299Z,3.00
2017-12-01T01:29:25.540Z,3.10
2017-12-01T01:31:53.762Z,3.00
2017-12-01T01:34:21.997Z,3.00
2017-12-01T01:36:49.448Z,3.00
2017-12-01T01:39:16.946Z,3.00
2017-12-01T01:41:44.412Z,3.00
2017-12-01T01:44:11.869Z,3.00
2017-12-01T01:46:39.348Z,3.00
2017-12-01T01:49:07.584Z,3.00
2017-12-01T01:51:35.821Z,3.00
2017-12-01T01:54:03.293Z,3.00
2017-12-01T01:56:30.752Z,3.00
2017-12-01T01:58:58.215Z,3.00
2017-12-01T02:01:25.798Z,3.00
2017-12-01T02:03:53.253Z,3.00
2017-12-01T02:06:20.716Z,3.00
2017-12-01T02:08:48.179Z,3.10
2017-12-01T02:11:15.658Z,3.10
2017-12-01T02:13:43.090Z,3.10
2017-12-01T02:16:10.570Z,3.00
2017-12-01T02:18:38.020Z,3.10
2017-12-01T02:21:05.496Z,3.00
2017-12-01T02:23:32.959Z,3.00
2017-12-01T02:26:00.436Z,3.00
2017-12-01T02:28:27.903Z,2.90
2017-12-01T02:30:55.361Z,3.10
2017-12-01T02:33:22.811Z,3.10
2017-12-01T02:35:50.284Z,3.10
2017-12-01T02:38:17.732Z,3.10
2017-12-01T02:40:45.209Z,3.10
2017-12-01T02:43:12.660Z,3.00
2017-12-01T02:45:40.125Z,3.00
2017-12-01T02:48:07.572Z,3.00
2017-12-01T02:50:35.143Z,3.10
2017-12-01T02:53:02.570Z,3.10
2017-12-01T02:55:30.812Z,3.10
2017-12-01T02:57:58.262Z,3.10
2017-12-01T03:00:25.730Z,3.00
2017-12-01T03:02:53.952Z,3.10
2017-12-01T03:05:22.178Z,3.10
2017-12-01T03:07:49.640Z,3.00
2017-12-01T03:10:17.089Z,3.00
2017-12-01T03:12:44.563Z,3.00
2017-12-01T03:15:12.020Z,3.00
2017-12-01T03:17:39.487Z,3.00
2017-12-01T03:20:06.957Z,3.10
2017-12-01T03:22:34.420Z,3.00
2017-12-01T03:25:01.877Z,3.10
2017-12-01T03:27:29.343Z,3.00
2017-12-01T03:29:56.795Z,3.00
2017-12-01T03:32:24.262Z,3.00
2017-12-01T03:34:51.720Z,3.00
2017-12-01T03:37:19.189Z,3.00
2017-12-01T03:39:46.646Z,3.00
2017-12-01T03:42:14.111Z,3.00
2017-12-01T03:44:41.569Z,3.00
2017-12-01T03:47:09.041Z,3.00
2017-12-01T03:49:36.495Z,3.10
2017-12-01T03:52:03.966Z,3.00
2017-12-01T03:54:31.411Z,3.00
2017-12-01T03:56:58.889Z,3.00
2017-12-01T03:59:26.342Z,3.00
2017-12-01T04:01:53.807Z,3.00
2017-12-01T04:04:21.272Z,3.00
2017-12-01T04:06:48.723Z,3.00
2017-12-01T04:09:16.169Z,3.00
2017-12-01T04:11:44.395Z,3.00
2017-12-01T04:14:11.838Z,3.00
2017-12-01T04:16:39.278Z,3.00
2017-12-01T04:19:06.740Z,3.00
2017-12-01T04:21:34.218Z,3.00
2017-12-01T04:24:01.651Z,3.00
2017-12-01T04:26:29.883Z,3.00
2017-12-01T04:28:57.344Z,3.00
2017-12-01T04:31:24.800Z,3.00
2017-12-01T04:33:52.275Z,3.00
2017-12-01T04:36:20.508Z,2.90
2017-12-01T04:38:48.743Z,2.90
2017-12-01T04:41:16.199Z,2.90
2017-12-01T04:43:43.735Z,2.90
2017-12-01T04:46:11.181Z,2.90
2017-12-01T04:48:38.658Z,2.90
2017-12-01T04:51:06.108Z,2.90
2017-12-01T04:53:33.558Z,2.80
2017-12-01T04:56:01.787Z,2.80
2017-12-01T04:58:29.275Z,2.80
2017-12-01T05:00:56.792Z,2.90
2017-12-01T05:03:24.289Z,2.90
2017-12-01T05:05:51.755Z,2.90
2017-12-01T05:08:19.230Z,2.80
2017-12-01T05:10:46.689Z,2.80
2017-12-01T05:13:14.170Z,2.80
2017-12-01T05:15:41.627Z,2.80
2017-12-01T05:18:09.100Z,2.80
2017-12-01T05:20:37.333Z,2.80
2017-12-01T05:23:04.797Z,2.70
2017-12-01T05:25:32.266Z,2.80
2017-12-01T05:27:59.735Z,2.80
2017-12-01T05:30:27.209Z,2.80
2017-12-01T05:32:54.684Z,2.70
2017-12-01T05:35:22.930Z,2.70
2017-12-01T05:37:50.388Z,2.70
2017-12-01T05:40:17.853Z,2.70
2017-12-01T05:42:45.318Z,2.70
2017-12-01T05:45:13.539Z,2.70
2017-12-01T05:47:41.784Z,2.70
2017-12-01T05:50:09.242Z,2.70
2017-12-01T05:52:36.706Z,2.70
2017-12-01T05:55:04.178Z,2.70
2017-12-01T05:57:31.640Z,2.70
2017-12-01T05:59:59.116Z,2.60
2017-12-01T06:02:26.576Z,2.60
2017-12-01T06:04:54.061Z,2.70
2017-12-01T06:07:22.294Z,2.60
2017-12-01T06:09:50.523Z,2.60
2017-12-01T06:12:18.765Z,2.60
2017-12-01T06:14:46.247Z,2.60
2017-12-01T06:17:13.704Z,2.60
2017-12-01T06:19:41.171Z,2.50
2017-12-01T06:22:08.626Z,2.60
2017-12-01T06:24:36.099Z,2.60
2017-12-01T06:27:04.340Z,2.60
2017-12-01T06:29:31.810Z,2.50
2017-12-01T06:31:59.268Z,2.60
2017-12-01T06:34:26.735Z,2.60
2017-12-01T06:36:54.192Z,2.60
2017-12-01T06:39:21.656Z,2.60
2017-12-01T06:41:49.120Z,2.60
2017-12-01T06:44:16.596Z,2.60
2017-12-01T06:46:44.047Z,2.60
2017-12-01T06:49:11.519Z,2.60
2017-12-01T06:51:38.981Z,2.60
2017-12-01T06:54:06.451Z,2.60
2017-12-01T06:56:33.902Z,2.60
2017-12-01T06:59:01.367Z,2.60
2017-12-01T07:01:28.868Z,2.60
2017-12-01T07:03:56.296Z,2.70
2017-12-01T07:06:23.741Z,2.60
2017-12-01T07:08:51.203Z,2.70
2017-12-01T07:11:18.680Z,2.70
2017-12-01T07:13:46.150Z,2.70
2017-12-01T07:16:13.595Z,2.70
2017-12-01T07:18:41.050Z,2.70
2017-12-01T07:21:08.505Z,2.70
2017-12-01T07:23:35.956Z,2.70
2017-12-01T07:26:15.330Z,2.60
2017-12-01T07:28:42.788Z,2.60
2017-12-01T07:31:10.252Z,2.60
2017-12-01T07:33:37.722Z,2.60
2017-12-01T07:36:05.194Z,2.60
2017-12-01T07:38:32.658Z,2.60
2017-12-01T07:41:00.107Z,2.60
2017-12-01T07:43:27.576Z,2.60
2017-12-01T07:45:55.037Z,2.60
2017-12-01T07:48:22.504Z,2.60
2017-12-01T07:50:49.962Z,2.60
2017-12-01T07:53:17.428Z,2.70
2017-12-01T07:55:44.890Z,2.70
2017-12-01T07:58:12.365Z,2.70
2017-12-01T08:00:40.601Z,2.70
2017-12-01T08:03:08.074Z,2.70
2017-12-01T08:05:35.541Z,2.70
2017-12-01T08:08:03.010Z,2.70
2017-12-01T08:10:30.468Z,2.70
2017-12-01T08:12:57.944Z,2.70
2017-12-01T08:15:25.390Z,2.70
2017-12-01T08:17:52.855Z,2.70
2017-12-01T08:20:20.314Z,2.70
2017-12-01T08:22:52.755Z,2.70
2017-12-01T08:25:29.544Z,2.70
2017-12-01T08:27:57.023Z,2.70
2017-12-01T08:30:24.483Z,2.70
2017-12-01T08:32:52.716Z,2.70
2017-12-01T08:35:20.167Z,2.70
2017-12-01T08:37:48.379Z,2.80
2017-12-01T08:40:15.844Z,2.80
2017-12-01T08:42:43.313Z,2.80
2017-12-01T08:45:10.784Z,2.80
2017-12-01T08:47:38.239Z,2.80
2017-12-01T08:50:05.731Z,2.80
2017-12-01T08:52:33.180Z,2.80
2017-12-01T08:55:00.647Z,2.80
2017-12-01T08:57:28.100Z,2.90
2017-12-01T08:59:55.540Z,2.90
2017-12-01T09:02:23.003Z,2.90
2017-12-01T09:04:50.482Z,2.90
2017-12-01T09:07:17.934Z,2.90
2017-12-01T09:09:45.396Z,2.90
2017-12-01T09:12:12.858Z,2.90
2017-12-01T09:14:40.327Z,2.90
2017-12-01T09:17:07.784Z,2.90
2017-12-01T09:19:35.247Z,3.00
2017-12-01T09:22:02.710Z,2.90
2017-12-01T09:24:30.166Z,2.90
2017-12-01T09:26:57.640Z,3.00
2017-12-01T09:29:25.108Z,3.00
2017-12-01T09:31:52.564Z,3.00
2017-12-01T09:34:20.041Z,3.00
2017-12-01T09:36:47.500Z,3.00
2017-12-01T09:39:14.965Z,3.00
2017-12-01T09:41:42.433Z,3.10
2017-12-01T09:44:09.895Z,3.00
2017-12-01T09:46:37.366Z,3.10
2017-12-01T09:49:04.828Z,3.10
2017-12-01T09:51:32.280Z,3.10
2017-12-01T09:53:59.736Z,3.10
2017-12-01T09:56:27.208Z,3.10
2017-12-01T09:58:54.661Z,3.10
2017-12-01T10:01:22.136Z,3.10
2017-12-01T10:03:49.608Z,3.10
2017-12-01T10:06:17.076Z,3.20
2017-12-01T10:08:44.544Z,3.20
2017-12-01T10:11:12.008Z,3.20
2017-12-01T10:13:39.463Z,3.20
2017-12-01T10:16:06.909Z,3.20
2017-12-01T10:18:34.438Z,3.30
2017-12-01T10:21:01.894Z,3.30
2017-12-01T10:23:29.363Z,3.30
2017-12-01T10:25:56.831Z,3.30
2017-12-01T10:28:24.296Z,3.30
2017-12-01T10:30:51.765Z,3.30
2017-12-01T10:33:19.216Z,3.30
2017-12-01T10:35:46.671Z,3.30
2017-12-01T10:38:14.144Z,3.30
2017-12-01T10:40:41.611Z,3.30
2017-12-01T10:43:09.072Z,3.40
2017-12-01T10:45:36.528Z,3.40
2017-12-01T10:48:03.992Z,3.40
2017-12-01T10:50:31.462Z,3.40
2017-12-01T10:52:58.918Z,3.40
2017-12-01T10:55:26.374Z,3.40
2017-12-01T10:57:53.828Z,3.40
2017-12-01T11:00:21.304Z,3.50
2017-12-01T11:02:48.780Z,3.50
2017-12-01T11:05:16.247Z,3.50
2017-12-01T11:07:43.712Z,3.50
2017-12-01T11:10:11.948Z,3.50
2017-12-01T11:12:39.403Z,3.50
2017-12-01T11:15:07.659Z,3.50
2017-12-01T11:17:35.112Z,3.50
2017-12-01T11:20:02.563Z,3.50
2017-12-01T11:22:30.036Z,3.50
2017-12-01T11:24:57.487Z,3.60
2017-12-01T11:27:25.407Z,3.60
2017-12-01T11:29:53.634Z,3.60
2017-12-01T11:32:21.130Z,3.60
2017-12-01T11:34:48.559Z,3.60
2017-12-01T11:37:16.027Z,3.70
2017-12-01T11:39:43.490Z,3.70
2017-12-01T11:42:11.749Z,3.70
2017-12-01T11:44:39.210Z,3.70
2017-12-01T11:47:06.676Z,3.70
2017-12-01T11:49:34.135Z,3.70
2017-12-01T11:52:01.596Z,3.70
2017-12-01T11:54:29.054Z,3.80
2017-12-01T11:56:56.523Z,3.80
2017-12-01T11:59:23.973Z,3.80
2017-12-01T12:01:51.444Z,3.80
2017-12-01T12:04:18.907Z,3.80
2017-12-01T12:06:46.406Z,3.80
2017-12-01T12:09:13.841Z,3.80
2017-12-01T12:11:41.315Z,3.80
2017-12-01T12:14:08.776Z,3.80
2017-12-01T12:16:36.262Z,3.90
2017-12-01T12:19:03.716Z,3.90
2017-12-01T12:21:31.192Z,3.90
2017-12-01T12:23:58.676Z,3.90
2017-12-01T12:26:26.916Z,3.90
2017-12-01T12:28:54.371Z,3.90
2017-12-01T12:31:21.845Z,3.90
2017-12-01T12:33:49.304Z,4.00
2017-12-01T12:36:16.779Z,4.00
2017-12-01T12:38:44.237Z,4.00
2017-12-01T12:41:11.716Z,3.90
2017-12-01T12:43:39.175Z,4.00
2017-12-01T12:46:06.627Z,4.00
2017-12-01T12:48:34.078Z,3.90
2017-12-01T12:51:01.536Z,4.00
2017-12-01T12:53:29.007Z,4.00
2017-12-01T12:55:56.447Z,4.00
2017-12-01T12:58:23.902Z,4.00
2017-12-01T13:00:51.346Z,4.00
2017-12-01T13:03:18.827Z,4.00
2017-12-01T13:05:46.291Z,4.00
2017-12-01T13:08:13.760Z,4.00
2017-12-01T13:10:41.237Z,4.00
2017-12-01T13:13:08.673Z,4.00
2017-12-01T13:15:36.140Z,4.00
2017-12-01T13:18:03.607Z,4.00
2017-12-01T13:20:31.073Z,4.00
2017-12-01T13:22:58.540Z,4.00
2017-12-01T13:25:26.763Z,4.00
2017-12-01T13:27:55.004Z,4.00
2017-12-01T13:30:22.448Z,4.00
2017-12-01T13:32:49.927Z,4.00
2017-12-01T13:35:17.396Z,4.00
2017-12-01T13:37:44.886Z,4.00
2017-12-01T13:40:12.348Z,4.00
2017-12-01T13:42:39.804Z,4.00
2017-12-01T13:45:07.260Z,4.00
2017-12-01T13:47:34.725Z,4.00
2017-12-01T13:50:02.180Z,4.00
2017-12-01T13:52:29.664Z,4.00
2017-12-01T13:54:57.123Z,4.10
2017-12-01T13:57:24.597Z,4.00
2017-12-01T13:59:52.041Z,4.10
2017-12-01T14:02:19.514Z,4.00
2017-12-01T14:04:46.965Z,4.00
2017-12-01T14:07:14.416Z,4.00
2017-12-01T14:09:41.883Z,4.00
2017-12-01T14:12:09.338Z,4.00
2017-12-01T14:14:37.572Z,4.00
2017-12-01T14:17:05.019Z,4.00
2017-12-01T14:19:33.259Z,4.00
2017-12-01T14:22:00.704Z,4.00
2017-12-01T14:24:28.158Z,4.00
2017-12-01T14:26:55.629Z,4.00
2017-12-01T14:29:23.859Z,4.00
2017-12-01T14:31:52.086Z,4.00
2017-12-01T14:34:19.547Z,4.00
2017-12-01T14:36:47.007Z,4.00
2017-12-01T14:39:14.460Z,4.00
2017-12-01T14:41:41.912Z,4.00
2017-12-01T14:44:09.388Z,4.00
2017-12-01T14:46:36.856Z,4.00
2017-12-01T14:49:04.313Z,4.00
2017-12-01T14:51:31.771Z,4.00
2017-12-01T14:53:59.229Z,4.00
2017-12-01T14:56:26.696Z,4.00
2017-12-01T14:58:54.174Z,4.00
2017-12-01T15:01:22.448Z,4.00
2017-12-01T15:03:49.911Z,4.00
2017-12-01T15:06:17.366Z,4.00
2017-12-01T15:08:44.834Z,4.00
2017-12-01T15:11:12.292Z,4.00
2017-12-01T15:13:39.772Z,4.00
2017-12-01T15:16:07.240Z,4.00
2017-12-01T15:18:34.711Z,4.00
2017-12-01T15:21:02.170Z,4.00
2017-12-01T15:23:29.624Z,4.00
2017-12-01T15:25:57.096Z,4.00
2017-12-01T15:28:24.555Z,4.00
2017-12-01T15:30:52.019Z,4.00
2017-12-01T15:33:19.472Z,3.90
2017-12-01T15:35:46.939Z,3.90
2017-12-01T15:38:14.400Z,3.90
2017-12-01T15:40:41.880Z,3.90
2017-12-01T15:43:09.407Z,3.90
2017-12-01T15:45:36.865Z,3.90
2017-12-01T15:48:04.321Z,3.90
2017-12-01T15:50:31.793Z,3.90
2017-12-01T15:52:59.249Z,3.90
2017-12-01T15:55:28.660Z,3.90
2017-12-01T15:57:56.106Z,3.90
2017-12-01T16:00:23.580Z,3.90
2017-12-01T16:02:51.042Z,3.90
2017-12-01T16:05:18.505Z,3.90
2017-12-01T16:07:45.980Z,3.90
2017-12-01T16:10:13.435Z,3.80
2017-12-01T16:12:40.907Z,3.80
2017-12-01T16:15:08.387Z,3.80
2017-12-01T16:17:35.842Z,3.80
2017-12-01T16:20:03.319Z,3.80
2017-12-01T16:22:30.779Z,3.80
2017-12-01T16:24:58.277Z,3.80
2017-12-01T16:27:25.727Z,3.80
2017-12-01T16:29:53.204Z,3.80
2017-12-01T16:32:21.431Z,3.80
2017-12-01T16:34:48.903Z,3.80
2017-12-01T16:37:16.368Z,3.80
2017-12-01T16:39:43.826Z,3.70
2017-12-01T16:42:11.284Z,3.70
2017-12-01T16:44:38.730Z,3.70
2017-12-01T16:47:06.190Z,3.70
2017-12-01T16:49:33.653Z,3.70
2017-12-01T16:52:01.132Z,3.70
2017-12-01T16:54:28.596Z,3.70
2017-12-01T16:56:56.070Z,3.70
2017-12-01T16:59:23.537Z,3.70
2017-12-01T17:01:50.999Z,3.70
2017-12-01T17:04:18.456Z,3.70
2017-12-01T17:06:45.910Z,3.70
2017-12-01T17:09:14.139Z,3.70
2017-12-01T17:11:41.610Z,3.70
2017-12-01T17:14:09.072Z,3.70
2017-12-01T17:16:36.552Z,3.70
2017-12-01T17:19:04.012Z,3.70
2017-12-01T17:21:31.490Z,3.70
2017-12-01T17:23:59.050Z,3.70
2017-12-01T17:26:26.499Z,3.70
2017-12-01T17:28:53.964Z,3.70
2017-12-01T17:31:21.422Z,3.70
2017-12-01T17:33:48.875Z,3.70
2017-12-01T17:36:16.348Z,3.60
2017-12-01T17:38:43.820Z,3.60
2017-12-01T17:41:11.292Z,3.60
2017-12-01T17:43:38.748Z,3.60
2017-12-01T17:46:06.231Z,3.60
2017-12-01T17:48:33.681Z,3.60
2017-12-01T17:51:01.145Z,3.60
2017-12-01T17:53:28.611Z,3.50
2017-12-01T17:55:56.257Z,3.50
2017-12-01T17:58:23.732Z,3.50
2017-12-01T18:00:51.199Z,3.50
2017-12-01T18:03:18.661Z,3.50
2017-12-01T18:05:46.135Z,3.50
2017-12-01T18:08:13.614Z,3.50
2017-12-01T18:10:41.076Z,3.40
2017-12-01T18:13:08.536Z,3.40
2017-12-01T18:15:35.990Z,3.40
2017-12-01T18:18:03.467Z,3.30
2017-12-01T18:20:30.910Z,3.30
2017-12-01T18:22:58.371Z,3.30
2017-12-01T18:25:25.828Z,3.30
2017-12-01T18:27:53.292Z,3.30
2017-12-01T18:30:20.751Z,3.30
2017-12-01T18:32:48.217Z,3.30
2017-12-01T18:35:15.677Z,3.30
2017-12-01T18:37:43.129Z,3.30
2017-12-01T18:40:10.586Z,3.30
2017-12-01T18:42:38.082Z,3.30
2017-12-01T18:45:05.510Z,3.30
2017-12-01T18:47:32.976Z,3.30
2017-12-01T18:50:00.540Z,3.20
2017-12-01T18:52:28.000Z,3.20
2017-12-01T18:54:55.473Z,3.20
2017-12-01T18:57:22.922Z,3.30
2017-12-01T18:59:50.387Z,3.30
2017-12-01T19:02:17.850Z,3.30
2017-12-01T19:04:45.313Z,3.20
2017-12-01T19:07:12.775Z,3.30
2017-12-01T19:09:40.238Z,3.20
2017-12-01T19:12:07.713Z,3.20
2017-12-01T19:14:35.170Z,3.20
2017-12-01T19:17:02.640Z,3.20
2017-12-01T19:19:30.087Z,3.20
2017-12-01T19:21:57.550Z,3.20
2017-12-01T19:24:25.003Z,3.20
2017-12-01T19:26:52.462Z,3.20
2017-12-01T19:29:19.925Z,3.20
2017-12-01T19:31:47.395Z,3.20
2017-12-01T19:34:14.852Z,3.20
2017-12-01T19:36:42.316Z,3.20
2017-12-01T19:39:09.788Z,3.20
2017-12-01T19:41:37.258Z,3.20
2017-12-01T19:44:04.729Z,3.20
2017-12-01T19:46:32.195Z,3.20
2017-12-01T19:49:00.414Z,3.10
2017-12-01T19:51:27.858Z,3.20
2017-12-01T19:53:55.327Z,3.10
2017-12-01T19:56:22.799Z,3.10
2017-12-01T19:58:50.262Z,3.10
2017-12-01T20:01:17.731Z,3.10
2017-12-01T20:03:45.948Z,3.00
2017-12-01T20:06:13.408Z,3.00
2017-12-01T20:08:40.888Z,3.00
2017-12-01T20:11:08.341Z,2.90
2017-12-01T20:13:35.802Z,2.80
2017-12-01T20:16:03.246Z,2.80
2017-12-01T20:18:30.702Z,2.70
2017-12-01T20:20:58.167Z,2.70
2017-12-01T20:23:25.627Z,2.70
2017-12-01T20:25:53.089Z,2.70
2017-12-01T20:28:20.580Z,2.60
2017-12-01T20:30:48.044Z,2.60
2017-12-01T20:33:15.530Z,2.60
2017-12-01T20:35:43.009Z,2.50
2017-12-01T20:38:10.461Z,2.50
2017-12-01T20:40:37.935Z,2.50
2017-12-01T20:43:05.403Z,2.50
2017-12-01T20:45:32.858Z,2.40
2017-12-01T20:48:00.298Z,2.40
2017-12-01T20:50:27.750Z,2.40
2017-12-01T20:52:55.226Z,2.30
2017-12-01T20:55:22.683Z,2.30
2017-12-01T20:57:50.141Z,2.30
2017-12-01T21:00:17.611Z,2.30
2017-12-01T21:02:45.146Z,2.30
2017-12-01T21:05:12.612Z,2.20
2017-12-01T21:07:40.073Z,2.30
2017-12-01T21:10:07.535Z,2.20
2017-12-01T21:12:34.996Z,2.20
2017-12-01T21:15:02.458Z,2.10
2017-12-01T21:17:29.920Z,2.10
2017-12-01T21:19:57.404Z,2.10
2017-12-01T21:22:24.875Z,2.00
2017-12-01T21:24:52.359Z,2.00
2017-12-01T21:27:19.836Z,1.90
2017-12-01T21:29:48.081Z,1.80
2017-12-01T21:32:15.536Z,1.80
2017-12-01T21:34:42.999Z,1.80
2017-12-01T21:37:10.465Z,1.80
2017-12-01T21:39:37.917Z,1.80
2017-12-01T21:42:05.387Z,1.80
2017-12-01T21:44:32.854Z,1.70
2017-12-01T21:47:00.345Z,1.70
2017-12-01T21:49:27.811Z,1.70
2017-12-01T21:51:56.061Z,1.60
2017-12-01T21:54:23.528Z,1.60
2017-12-01T21:56:50.992Z,1.60
2017-12-01T21:59:18.464Z,1.60
2017-12-01T22:01:45.939Z,1.60
2017-12-01T22:04:14.266Z,1.60
2017-12-01T22:06:41.727Z,1.60
2017-12-01T22:09:09.167Z,1.60
2017-12-01T22:11:36.630Z,1.60
2017-12-01T22:14:04.838Z,1.50
2017-12-01T22:16:32.299Z,1.50
2017-12-01T22:18:59.759Z,1.50
2017-12-01T22:21:27.239Z,1.50
2017-12-01T22:23:54.714Z,1.50
2017-12-01T22:26:22.246Z,1.50
2017-12-01T22:28:49.697Z,1.50
2017-12-01T22:31:17.172Z,1.40
2017-12-01T22:33:44.631Z,1.30
2017-12-01T22:36:12.095Z,1.30
2017-12-01T22:38:39.565Z,1.30
2017-12-01T22:41:07.045Z,1.30
2017-12-01T22:43:34.508Z,1.20
2017-12-01T22:46:01.979Z,1.10
2017-12-01T22:48:29.442Z,1.10
2017-12-01T22:50:56.916Z,1.10
2017-12-01T22:53:24.399Z,1.10
2017-12-01T22:55:51.855Z,1.10
2017-12-01T22:58:20.087Z,1.10
2017-12-01T23:00:47.564Z,1.10
2017-12-01T23:03:15.049Z,1.10
2017-12-01T23:05:42.520Z,1.10
2017-12-01T23:08:10.848Z,1.10
2017-12-01T23:10:38.315Z,1.10
2017-12-01T23:13:05.775Z,1.10
2017-12-01T23:15:33.256Z,1.10
2017-12-01T23:18:00.732Z,1.00
2017-12-01T23:20:28.209Z,1.00
2017-12-01T23:22:55.723Z,1.00
2017-12-01T23:25:23.203Z,1.00
2017-12-01T23:27:50.662Z,1.00
2017-12-01T23:30:18.169Z,1.00
2017-12-01T23:32:45.612Z,1.00
2017-12-01T23:35:13.081Z,1.00
2017-12-01T23:37:40.542Z,1.00
2017-12-01T23:40:07.991Z,1.10
2017-12-01T23:42:35.458Z,1.10
2017-12-01T23:45:02.928Z,1.10
2017-12-01T23:47:30.392Z,1.00
2017-12-01T23:49:57.878Z,1.00
2017-12-01T23:52:26.117Z,0.90
2017-12-01T23:54:53.574Z,0.90
2017-12-01T23:57:21.061Z,0.90
2017-12-01T23:59:48.523Z,0.80
